Time;durP1;ratioP1;P1;durP2;ratioP2;P2;SDS_P1;SDS_P2;PMS_P1;PMS_P2;Temp;Humidity;BMP_temperature;BMP_pressure;BME280_temperature;BME280_humidity;BME280_pressure;Samples;Min_cycle;Max_cycle;Signal;HPM_P1;HPM_P2
2023/12/14 00:00:32;;;;;;;2.45;0.85;;;7.60;87.10;;;;;;6276599;22;20689;-87
2023/12/14 00:02:59;;;;;;;1.80;0.70;;;7.60;87.40;;;;;;6277041;22;20204;-87
2023/12/14 00:05:37;;;;;;;3.45;0.90;;;7.60;87.60;;;;;;6276877;22;20212;-87
2023/12/14 00:08:04;;;;;;;1.90;1.00;;;7.60;87.20;;;;;;6276967;22;20256;-87
2023/12/14 00:10:38;;;;;;;1.90;1.00;;;7.70;87.30;;;;;;6276725;22;20553;-87
2023/12/14 00:13:10;;;;;;;3.65;0.90;;;7.70;87.30;;;;;;6277187;22;20153;-86
2023/12/14 00:15:40;;;;;;;2.60;1.08;;;7.70;87.30;;;;;;6276652;22;20150;-87
2023/12/14 00:18:12;;;;;;;2.55;1.00;;;7.70;87.10;;;;;;6277034;22;20534;-87
2023/12/14 00:20:54;;;;;;;2.00;0.82;;;7.80;87.20;;;;;;6277097;22;20516;-87
2023/12/14 00:23:21;;;;;;;1.90;0.98;;;7.80;87.40;;;;;;6277571;22;20514;-87
2023/12/14 00:25:48;;;;;;;1.90;1.10;;;7.80;87.50;;;;;;6278806;22;20245;-87
2023/12/14 00:28:15;;;;;;;2.85;1.20;;;7.80;87.70;;;;;;6278727;22;20260;-84
2023/12/14 00:30:46;;;;;;;2.45;1.55;;;7.80;87.60;;;;;;6279111;22;20165;-85
2023/12/14 00:33:13;;;;;;;2.05;0.98;;;7.90;87.40;;;;;;6279042;22;20186;-84
2023/12/14 00:35:40;;;;;;;2.35;0.98;;;7.90;87.00;;;;;;6278060;22;20529;-86
2023/12/14 00:38:08;;;;;;;3.67;0.82;;;7.90;86.70;;;;;;6278202;22;20212;-84
2023/12/14 00:40:40;;;;;;;2.38;0.90;;;7.90;87.00;;;;;;6278674;22;20165;-86
2023/12/14 00:43:07;;;;;;;2.10;1.00;;;7.90;86.90;;;;;;6278290;22;20150;-85
2023/12/14 00:45:36;;;;;;;2.28;1.10;;;7.90;86.90;;;;;;6278205;22;20232;-85
2023/12/14 00:48:08;;;;;;;2.85;1.17;;;7.90;86.90;;;;;;6278641;22;20498;-85
2023/12/14 00:50:35;;;;;;;2.25;1.35;;;7.90;87.30;;;;;;6278668;22;20184;-85
2023/12/14 00:53:04;;;;;;;2.65;1.00;;;7.90;87.20;;;;;;6278276;22;20225;-85
2023/12/14 00:55:33;;;;;;;2.75;1.55;;;7.90;88.10;;;;;;6278087;22;20165;-85
2023/12/14 00:58:01;;;;;;;2.00;0.80;;;7.90;86.90;;;;;;6277945;22;20224;-86
2023/12/14 01:00:32;;;;;;;3.50;1.15;;;7.90;86.70;;;;;;6278594;22;20216;-85
2023/12/14 01:03:06;;;;;;;2.47;1.20;;;7.90;86.80;;;;;;6278341;22;20616;-86
2023/12/14 01:05:33;;;;;;;2.40;1.10;;;7.90;86.90;;;;;;6278748;22;20204;-86
2023/12/14 01:08:01;;;;;;;1.88;0.90;;;7.90;86.70;;;;;;6278077;22;20192;-86
2023/12/14 01:10:28;;;;;;;1.73;0.77;;;7.90;86.50;;;;;;6278311;22;20244;-86
2023/12/14 01:12:55;;;;;;;3.13;0.95;;;7.90;86.30;;;;;;6278130;22;20193;-85
2023/12/14 01:15:22;;;;;;;1.90;0.93;;;7.90;86.20;;;;;;6278034;22;20483;-85
2023/12/14 01:17:49;;;;;;;2.22;1.05;;;7.90;86.30;;;;;;6277925;22;20188;-86
2023/12/14 01:20:25;;;;;;;2.80;1.20;;;7.90;86.20;;;;;;6278458;22;20535;-85
2023/12/14 01:22:52;;;;;;;2.00;0.80;;;7.80;86.10;;;;;;6278203;22;20189;-85
2023/12/14 01:25:27;;;;;;;5.15;1.05;;;7.80;86.40;;;;;;6278375;22;20230;-85
2023/12/14 01:27:54;;;;;;;2.55;1.13;;;7.80;86.50;;;;;;6277912;22;20169;-86
2023/12/14 01:30:23;;;;;;;1.90;0.90;;;7.80;86.50;;;;;;6278350;22;20491;-86
2023/12/14 01:32:55;;;;;;;1.70;0.70;;;7.80;86.70;;;;;;6278198;22;20168;-85
2023/12/14 01:35:23;;;;;;;2.17;1.17;;;7.80;86.60;;;;;;6278279;22;20150;-85
2023/12/14 01:37:52;;;;;;;2.30;0.85;;;7.80;86.60;;;;;;6278021;22;20235;-84
2023/12/14 01:40:20;;;;;;;1.75;0.77;;;7.80;86.70;;;;;;6278083;22;20161;-86
2023/12/14 01:42:49;;;;;;;1.80;0.70;;;7.80;86.50;;;;;;6278460;22;20244;-85
2023/12/14 01:45:18;;;;;;;2.00;1.15;;;7.80;86.40;;;;;;6277507;22;20193;-86
2023/12/14 01:47:47;;;;;;;2.50;1.05;;;7.80;86.50;;;;;;6277893;22;20481;-86
2023/12/14 01:50:14;;;;;;;1.88;0.95;;;7.80;86.70;;;;;;6277961;22;20169;-86
2023/12/14 01:52:42;;;;;;;2.90;1.08;;;7.80;86.70;;;;;;6278439;22;20173;-87
2023/12/14 01:55:23;;;;;;;2.20;1.08;;;7.80;86.80;;;;;;6277675;22;20227;-86
2023/12/14 01:57:54;;;;;;;2.15;0.88;;;7.80;86.70;;;;;;6278154;22;20153;-86
2023/12/14 02:00:28;;;;;;;2.88;0.98;;;7.80;86.80;;;;;;6278002;22;20184;-86
2023/12/14 02:02:55;;;;;;;2.00;1.05;;;7.80;86.80;;;;;;6278166;22;20214;-85
2023/12/14 02:05:23;;;;;;;2.22;1.00;;;7.80;86.70;;;;;;6278010;22;20203;-86
2023/12/14 02:07:51;;;;;;;2.10;0.90;;;7.90;86.70;;;;;;6277887;22;20231;-86
2023/12/14 02:10:19;;;;;;;2.03;0.98;;;7.90;86.70;;;;;;6277427;22;20193;-87
2023/12/14 02:12:47;;;;;;;1.98;1.00;;;7.80;86.90;;;;;;6277632;22;20204;-86
2023/12/14 02:15:14;;;;;;;1.90;0.98;;;7.80;87.30;;;;;;6277722;22;20188;-87
2023/12/14 02:17:43;;;;;;;2.00;1.25;;;7.90;87.40;;;;;;6277869;22;20531;-87
2023/12/14 02:20:13;;;;;;;3.00;1.10;;;7.90;87.50;;;;;;6277847;22;20166;-86
2023/12/14 02:22:56;;;;;;;2.53;1.00;;;7.90;87.80;;;;;;6277428;22;20624;-86
2023/12/14 02:25:30;;;;;;;1.80;0.80;;;7.90;87.80;;;;;;6274071;22;20223;-86
2023/12/14 02:27:57;;;;;;;2.10;1.00;;;7.90;87.90;;;;;;6277703;22;20151;-87
2023/12/14 02:30:24;;;;;;;2.10;1.20;;;7.90;88.20;;;;;;6276393;22;20693;-86
2023/12/14 02:32:51;;;;;;;3.15;1.00;;;7.90;88.20;;;;;;6276995;22;20173;-85
2023/12/14 02:35:22;;;;;;;2.50;1.08;;;7.90;88.20;;;;;;6277719;22;20166;-85
2023/12/14 02:37:51;;;;;;;2.25;1.13;;;7.90;89.10;;;;;;6277356;22;20199;-84
2023/12/14 02:40:20;;;;;;;2.20;1.10;;;7.90;88.10;;;;;;6277171;22;20169;-86
2023/12/14 02:42:47;;;;;;;9.00;3.45;;;8.00;88.10;;;;;;6277586;22;20161;-86
2023/12/14 02:45:16;;;;;;;3.28;1.50;;;7.90;88.10;;;;;;6277133;22;20189;-85
2023/12/14 02:47:49;;;;;;;2.97;1.38;;;7.90;88.40;;;;;;6276238;22;20166;-86
2023/12/14 02:53:32;;;;;;;3.53;1.33;;;8.00;88.80;;;;;;6265480;22;20204;-87
2023/12/14 02:56:04;;;;;;;2.70;1.48;;;8.00;89.20;;;;;;6277302;22;20192;-86
2023/12/14 02:58:31;;;;;;;3.22;1.30;;;8.00;89.60;;;;;;6276007;22;20650;-86
2023/12/14 03:00:58;;;;;;;2.35;1.20;;;8.00;90.00;;;;;;6277148;22;20596;-86
2023/12/14 03:03:25;;;;;;;2.38;1.30;;;7.90;90.20;;;;;;6277710;22;20197;-85
2023/12/14 03:05:52;;;;;;;5.55;2.00;;;7.90;90.40;;;;;;6277549;22;20193;-85
2023/12/14 03:08:19;;;;;;;3.72;1.88;;;7.90;90.50;;;;;;6277419;22;20189;-86
2023/12/14 03:10:46;;;;;;;2.85;1.40;;;7.90;90.60;;;;;;6277073;22;20161;-86
2023/12/14 03:13:14;;;;;;;2.10;1.10;;;7.90;90.70;;;;;;6276447;22;20162;-85
2023/12/14 03:15:44;;;;;;;2.13;0.90;;;7.90;90.70;;;;;;6276907;22;20608;-86
2023/12/14 03:18:12;;;;;;;2.65;1.00;;;7.90;90.60;;;;;;6276803;22;20161;-86
2023/12/14 03:20:39;;;;;;;1.75;0.80;;;7.90;90.70;;;;;;6277057;22;20166;-86
2023/12/14 03:23:06;;;;;;;2.50;0.90;;;7.90;90.80;;;;;;6277297;22;20161;-87
2023/12/14 03:25:37;;;;;;;6.22;3.05;;;7.90;90.70;;;;;;6277056;22;20525;-87
2023/12/14 03:28:05;;;;;;;7.20;2.33;;;7.90;90.80;;;;;;6276769;22;20150;-86
2023/12/14 03:30:33;;;;;;;2.50;1.00;;;7.90;90.90;;;;;;6276808;22;20269;-86
2023/12/14 03:33:00;;;;;;;2.22;0.93;;;7.80;91.30;;;;;;6277295;22;20521;-86
2023/12/14 03:35:30;;;;;;;2.03;0.77;;;7.80;91.10;;;;;;6277573;22;20162;-86
2023/12/14 03:37:57;;;;;;;1.90;0.90;;;7.80;91.10;;;;;;6277214;22;20169;-86
2023/12/14 03:40:24;;;;;;;1.92;0.90;;;7.80;91.30;;;;;;6276173;22;20161;-86
2023/12/14 03:42:51;;;;;;;2.00;0.90;;;7.70;91.30;;;;;;6276877;22;20200;-87
2023/12/14 03:45:18;;;;;;;2.33;0.90;;;7.70;91.50;;;;;;6276727;22;20193;-87
2023/12/14 03:47:46;;;;;;;1.85;0.75;;;7.70;91.60;;;;;;6277010;22;20231;-86
2023/12/14 03:50:13;;;;;;;2.20;0.80;;;7.70;91.80;;;;;;6277099;22;20217;-85
2023/12/14 03:52:40;;;;;;;2.00;1.00;;;7.60;91.80;;;;;;6277169;22;20189;-86
2023/12/14 03:55:08;;;;;;;2.00;0.70;;;7.60;92.10;;;;;;6276565;22;20200;-86
2023/12/14 03:57:37;;;;;;;1.60;0.50;;;7.60;92.20;;;;;;6276718;22;20161;-86
2023/12/14 04:00:08;;;;;;;1.90;0.80;;;7.60;92.20;;;;;;6279316;22;20467;-82
2023/12/14 04:02:36;;;;;;;1.80;0.70;;;7.60;92.20;;;;;;6279216;22;20150;-86
2023/12/14 04:05:05;;;;;;;2.50;1.15;;;7.60;92.00;;;;;;6279085;22;20667;-86
2023/12/14 04:07:32;;;;;;;1.80;0.90;;;7.60;92.00;;;;;;6278535;22;20192;-87
2023/12/14 04:10:04;;;;;;;1.80;0.80;;;7.60;92.00;;;;;;6279169;22;20579;-85
2023/12/14 04:12:31;;;;;;;21.25;7.60;;;7.60;91.90;;;;;;6279339;22;20146;-87
2023/12/14 04:14:58;;;;;;;3.13;1.35;;;7.50;91.80;;;;;;6279103;22;20220;-86
2023/12/14 04:17:25;;;;;;;2.13;0.82;;;7.60;91.90;;;;;;6278790;22;20193;-87
2023/12/14 04:19:52;;;;;;;2.00;1.00;;;7.50;91.90;;;;;;6278692;22;20197;-87
2023/12/14 04:22:20;;;;;;;2.92;0.93;;;7.50;92.00;;;;;;6278457;22;20197;-87
2023/12/14 04:24:47;;;;;;;1.70;0.60;;;7.50;92.00;;;;;;6279069;22;20215;-87
2023/12/14 04:27:17;;;;;;;1.73;0.80;;;7.50;92.20;;;;;;6278465;22;20161;-86
2023/12/14 04:29:44;;;;;;;2.20;1.10;;;7.40;92.30;;;;;;6278484;22;20643;-86
2023/12/14 04:32:11;;;;;;;1.80;0.88;;;7.40;92.40;;;;;;6278590;22;20199;-87
2023/12/14 04:34:38;;;;;;;2.95;0.93;;;7.30;92.60;;;;;;6278436;22;20168;-87
2023/12/14 04:37:06;;;;;;;3.22;0.90;;;7.30;92.80;;;;;;6278947;22;20161;-87
2023/12/14 04:39:36;;;;;;;2.00;1.00;;;7.30;92.80;;;;;;6279065;22;20200;-87
2023/12/14 04:42:04;;;;;;;2.67;1.00;;;7.30;92.80;;;;;;6278317;22;20601;-87
2023/12/14 04:44:31;;;;;;;2.45;1.02;;;7.30;92.80;;;;;;6278910;22;20161;-87
2023/12/14 04:46:59;;;;;;;2.30;1.40;;;7.20;92.90;;;;;;6278873;22;20161;-87
2023/12/14 04:49:31;;;;;;;3.95;1.38;;;7.20;93.00;;;;;;6278095;22;20693;-87
2023/12/14 04:52:07;;;;;;;3.47;1.00;;;7.10;93.20;;;;;;6278137;22;20180;-87
2023/12/14 04:54:37;;;;;;;2.20;0.88;;;7.10;93.20;;;;;;6278393;22;20157;-87
2023/12/14 04:57:05;;;;;;;1.95;1.00;;;7.10;93.20;;;;;;6278026;22;20208;-86
2023/12/14 04:59:32;;;;;;;2.95;0.90;;;7.10;93.10;;;;;;6278940;22;20193;-87
2023/12/14 05:01:59;;;;;;;1.95;0.90;;;7.00;93.10;;;;;;6278422;22;20166;-87
2023/12/14 05:04:26;;;;;;;3.17;0.95;;;7.00;93.10;;;;;;6278642;22;20208;-86
2023/12/14 05:06:53;;;;;;;3.65;0.90;;;7.00;93.10;;;;;;6278642;22;20237;-86
2023/12/14 05:09:20;;;;;;;1.77;0.82;;;6.90;93.10;;;;;;6278187;22;20260;-85
2023/12/14 05:11:49;;;;;;;2.65;1.63;;;6.90;93.20;;;;;;6278217;22;20161;-85
2023/12/14 05:14:16;;;;;;;5.45;3.17;;;6.90;93.40;;;;;;6278453;22;20161;-83
2023/12/14 05:16:45;;;;;;;7.47;4.35;;;6.90;93.40;;;;;;6278451;22;20189;-86
2023/12/14 05:19:12;;;;;;;5.30;3.00;;;6.90;93.50;;;;;;6278154;22;20611;-86
2023/12/14 05:21:41;;;;;;;3.78;2.45;;;6.90;93.70;;;;;;6278523;22;20483;-86
2023/12/14 05:24:08;;;;;;;2.90;1.88;;;6.90;93.80;;;;;;6278351;22;20158;-86
2023/12/14 05:26:35;;;;;;;3.22;2.15;;;6.90;93.80;;;;;;6278035;22;20165;-86
2023/12/14 05:29:06;;;;;;;2.55;1.55;;;6.90;93.90;;;;;;6278248;22;20196;-86
2023/12/14 05:31:33;;;;;;;3.33;2.00;;;6.90;94.00;;;;;;6278044;22;20615;-86
2023/12/14 05:34:02;;;;;;;6.30;2.45;;;7.00;94.20;;;;;;6278050;22;20569;-86
2023/12/14 05:36:29;;;;;;;4.45;2.40;;;6.90;94.10;;;;;;6278590;22;20193;-86
2023/12/14 05:38:57;;;;;;;8.00;1.98;;;7.00;94.20;;;;;;6277997;22;20198;-86
2023/12/14 05:41:26;;;;;;;3.20;1.40;;;7.00;94.10;;;;;;6277959;22;20161;-86
2023/12/14 05:43:53;;;;;;;2.60;1.52;;;7.00;94.10;;;;;;6277590;22;20185;-86
2023/12/14 05:46:26;;;;;;;3.17;1.27;;;7.00;94.10;;;;;;6278194;22;20162;-87
2023/12/14 05:48:53;;;;;;;2.80;1.60;;;7.00;94.10;;;;;;6278278;22;20157;-87
2023/12/14 05:51:30;;;;;;;2.38;1.42;;;7.00;93.90;;;;;;6278106;22;20267;-87
2023/12/14 05:53:57;;;;;;;3.75;1.80;;;7.00;93.70;;;;;;6278432;22;20192;-87
2023/12/14 05:56:24;;;;;;;2.75;1.25;;;6.90;93.70;;;;;;6277438;22;20200;-87
2023/12/14 05:58:51;;;;;;;3.08;1.38;;;6.90;93.30;;;;;;6277948;22;20161;-88
2023/12/14 06:01:23;;;;;;;2.88;1.63;;;6.90;93.30;;;;;;6278207;22;20470;-86
2023/12/14 06:03:51;;;;;;;3.92;2.42;;;6.90;93.20;;;;;;6277428;22;20146;-87
2023/12/14 06:06:18;;;;;;;3.40;2.10;;;7.00;93.10;;;;;;6277621;22;20165;-87
2023/12/14 06:08:46;;;;;;;2.78;1.48;;;7.00;93.20;;;;;;6274543;22;20166;-83
2023/12/14 06:11:14;;;;;;;2.20;1.30;;;7.10;93.00;;;;;;6276138;22;20182;-87
2023/12/14 06:13:41;;;;;;;3.35;1.50;;;7.10;92.90;;;;;;6277148;22;20257;-87
2023/12/14 06:16:12;;;;;;;6.03;1.80;;;7.10;92.80;;;;;;6277103;22;20464;-87
2023/12/14 06:18:41;;;;;;;3.13;1.75;;;7.10;92.90;;;;;;6277110;22;20150;-87
2023/12/14 06:21:11;;;;;;;2.85;1.80;;;7.10;93.00;;;;;;6276222;22;20161;-86
2023/12/14 06:23:38;;;;;;;4.70;2.42;;;7.10;93.10;;;;;;6276667;22;20161;-86
2023/12/14 06:26:10;;;;;;;3.75;1.95;;;7.10;93.20;;;;;;6277171;22;20255;-86
2023/12/14 06:28:38;;;;;;;16.17;6.75;;;7.10;93.20;;;;;;6276894;22;20146;-86
2023/12/14 06:31:05;;;;;;;4.25;1.77;;;7.10;93.20;;;;;;6276629;22;20181;-86
2023/12/14 06:33:32;;;;;;;4.20;1.83;;;7.20;92.80;;;;;;6277058;22;20200;-87
2023/12/14 06:36:03;;;;;;;2.50;1.38;;;7.10;92.50;;;;;;6276739;22;20165;-86
2023/12/14 06:38:32;;;;;;;2.88;1.83;;;7.10;92.50;;;;;;6276696;22;20189;-86
2023/12/14 06:40:59;;;;;;;2.95;1.80;;;7.10;92.60;;;;;;6276504;22;20162;-86
2023/12/14 06:43:26;;;;;;;2.30;1.23;;;7.10;92.50;;;;;;6276327;22;20166;-86
2023/12/14 06:45:53;;;;;;;2.50;1.10;;;7.10;92.40;;;;;;6277011;22;20463;-86
2023/12/14 06:48:20;;;;;;;2.15;1.02;;;7.10;92.10;;;;;;6276605;22;20487;-86
2023/12/14 06:50:47;;;;;;;2.20;0.90;;;7.10;92.00;;;;;;6275406;22;20194;-87
2023/12/14 06:53:19;;;;;;;2.72;1.20;;;7.20;92.00;;;;;;6276005;22;20189;-86
2023/12/14 06:55:47;;;;;;;2.50;0.98;;;7.10;91.90;;;;;;6276573;22;20455;-86
2023/12/14 06:58:15;;;;;;;2.47;1.00;;;7.20;91.70;;;;;;6276731;22;20193;-85
2023/12/14 07:00:42;;;;;;;3.10;1.30;;;7.20;91.30;;;;;;6276121;22;20220;-84
2023/12/14 07:03:09;;;;;;;2.00;0.90;;;7.20;91.50;;;;;;6276260;22;20188;-86
2023/12/14 07:05:36;;;;;;;3.08;1.83;;;7.20;91.00;;;;;;6276019;22;20193;-86
2023/12/14 07:08:03;;;;;;;2.40;1.42;;;7.20;90.90;;;;;;6276670;22;20440;-86
2023/12/14 07:10:29;;;;;;;2.55;1.45;;;7.10;91.00;;;;;;6276644;22;20227;-87
2023/12/14 07:12:58;;;;;;;2.13;1.20;;;7.10;90.90;;;;;;6276314;22;20201;-87
2023/12/14 07:15:25;;;;;;;2.40;1.30;;;7.10;90.90;;;;;;6276768;22;20161;-86
2023/12/14 07:17:52;;;;;;;2.22;0.82;;;7.10;91.00;;;;;;6276742;22;20559;-90
2023/12/14 07:20:19;;;;;;;2.70;1.00;;;7.10;91.10;;;;;;6276079;22;20219;-90
2023/12/14 07:22:46;;;;;;;2.63;1.10;;;7.10;91.10;;;;;;6271734;22;20260;-90
2023/12/14 07:25:13;;;;;;;2.53;1.15;;;7.10;91.10;;;;;;6275033;22;20223;-89
2023/12/14 07:27:40;;;;;;;2.70;1.45;;;7.10;91.00;;;;;;6276099;22;20211;-90
2023/12/14 07:30:10;;;;;;;2.40;1.80;;;7.10;91.10;;;;;;6275522;22;20184;-87
2023/12/14 07:32:37;;;;;;;2.28;1.10;;;7.10;91.20;;;;;;6275367;22;20185;-88
2023/12/14 07:35:08;;;;;;;2.00;0.93;;;7.10;91.00;;;;;;6276053;22;20204;-89
2023/12/14 07:37:35;;;;;;;2.60;1.15;;;7.10;90.60;;;;;;6274758;22;20165;-87
2023/12/14 07:40:03;;;;;;;2.30;1.17;;;7.10;90.80;;;;;;6276447;22;20165;-83
2023/12/14 07:42:30;;;;;;;3.17;1.10;;;7.00;90.90;;;;;;6274247;22;20638;-89
2023/12/14 07:44:57;;;;;;;2.38;0.90;;;7.00;91.10;;;;;;6275201;22;20161;-88
2023/12/14 07:47:25;;;;;;;3.65;1.00;;;7.00;90.90;;;;;;6275462;22;20161;-89
2023/12/14 07:49:52;;;;;;;2.10;1.02;;;7.10;90.70;;;;;;6275730;22;20461;-90
2023/12/14 07:52:19;;;;;;;2.10;0.90;;;7.10;90.90;;;;;;6275400;22;20729;-90
2023/12/14 07:54:46;;;;;;;2.90;0.90;;;7.10;91.00;;;;;;6275846;22;20169;-88
2023/12/14 07:57:13;;;;;;;1.90;1.10;;;7.10;90.60;;;;;;6276337;22;20663;-90
2023/12/14 07:59:40;;;;;;;2.75;1.05;;;7.10;90.90;;;;;;6276994;22;20193;-90
2023/12/14 08:02:07;;;;;;;2.47;1.08;;;7.10;90.60;;;;;;6277100;22;20166;-90
2023/12/14 08:04:35;;;;;;;2.00;0.80;;;7.10;90.90;;;;;;6277055;22;20223;-90
2023/12/14 08:07:02;;;;;;;2.17;1.15;;;7.10;91.10;;;;;;6276992;22;20192;-89
2023/12/14 08:09:29;;;;;;;2.10;0.98;;;7.10;91.30;;;;;;6276824;22;20341;-90
2023/12/14 08:11:56;;;;;;;1.77;0.77;;;7.10;91.40;;;;;;6276870;22;20213;-90
2023/12/14 08:14:23;;;;;;;2.70;0.70;;;7.20;91.30;;;;;;6276901;22;20200;-90
2023/12/14 08:16:50;;;;;;;1.80;0.75;;;7.20;91.40;;;;;;6276947;22;20612;-90
2023/12/14 08:19:17;;;;;;;2.20;0.98;;;7.30;91.40;;;;;;6276945;22;20207;-90
2023/12/14 08:21:45;;;;;;;2.70;1.20;;;7.30;91.40;;;;;;6276881;22;20200;-91
2023/12/14 08:24:12;;;;;;;2.50;1.15;;;7.30;91.30;;;;;;6276481;22;20623;-89
2023/12/14 08:26:39;;;;;;;3.45;1.25;;;7.40;91.30;;;;;;6277006;22;20208;-90
2023/12/14 08:29:06;;;;;;;2.20;1.20;;;7.40;91.30;;;;;;6276535;22;20177;-90
2023/12/14 08:31:33;;;;;;;1.90;1.00;;;7.40;91.50;;;;;;6276453;22;20670;-92
2023/12/14 08:34:00;;;;;;;2.10;1.00;;;7.50;91.00;;;;;;6276835;22;20193;-92
2023/12/14 08:36:27;;;;;;;2.10;1.02;;;7.50;91.00;;;;;;6276461;22;20162;-92
2023/12/14 08:38:56;;;;;;;2.22;1.00;;;7.50;90.90;;;;;;6276781;22;20185;-92
2023/12/14 08:41:23;;;;;;;2.83;1.23;;;7.50;90.80;;;;;;6276840;22;20185;-92
2023/12/14 08:43:49;;;;;;;3.00;1.50;;;7.50;90.70;;;;;;6276976;22;20173;-91
2023/12/14 08:46:16;;;;;;;2.40;1.30;;;7.60;90.70;;;;;;6278712;22;20212;-93
2023/12/14 08:48:43;;;;;;;2.38;1.02;;;7.60;90.50;;;;;;6278283;22;20173;-93
2023/12/14 08:51:10;;;;;;;2.55;1.00;;;7.60;90.50;;;;;;6278411;22;20496;-92
2023/12/14 08:53:38;;;;;;;2.25;0.98;;;7.60;90.40;;;;;;6278501;22;20196;-93
2023/12/14 08:56:09;;;;;;;1.90;1.00;;;7.70;90.30;;;;;;6278556;22;20240;-91
2023/12/14 08:58:36;;;;;;;2.13;1.08;;;7.70;90.00;;;;;;6278252;22;20188;-92
2023/12/14 09:01:03;;;;;;;2.20;1.17;;;7.70;90.00;;;;;;6278617;22;20169;-91
2023/12/14 09:03:30;;;;;;;2.00;1.08;;;7.70;90.00;;;;;;6278569;22;20243;-92
2023/12/14 09:05:58;;;;;;;2.10;1.00;;;7.70;90.60;;;;;;6278061;22;20196;-91
2023/12/14 09:08:25;;;;;;;3.10;1.40;;;7.70;90.30;;;;;;6278716;22;20177;-91
2023/12/14 09:10:52;;;;;;;2.25;1.23;;;7.70;90.50;;;;;;6278286;22;20213;-91
2023/12/14 09:13:20;;;;;;;2.92;1.05;;;7.80;90.30;;;;;;6278659;22;20185;-92
2023/12/14 09:15:47;;;;;;;2.15;1.20;;;7.80;90.20;;;;;;6278429;22;20165;-92
2023/12/14 09:18:14;;;;;;;2.30;1.10;;;7.80;90.20;;;;;;6278359;22;20195;-91
2023/12/14 09:20:42;;;;;;;2.33;0.98;;;7.80;90.40;;;;;;6277944;22;20623;-92
2023/12/14 09:23:10;;;;;;;2.10;1.15;;;7.80;90.30;;;;;;6278347;22;20169;-91
2023/12/14 09:25:36;;;;;;;1.95;1.00;;;7.80;90.80;;;;;;6277993;22;20592;-92
2023/12/14 09:28:04;;;;;;;2.30;1.10;;;7.90;90.50;;;;;;6277864;22;20161;-91
2023/12/14 09:30:32;;;;;;;2.90;1.30;;;7.90;90.40;;;;;;6278164;22;20531;-91
2023/12/14 09:32:59;;;;;;;2.28;1.35;;;7.90;90.30;;;;;;6278294;22;20215;-91
2023/12/14 09:35:26;;;;;;;3.40;1.95;;;7.90;90.30;;;;;;6277896;22;20245;-91
2023/12/14 09:37:53;;;;;;;2.95;1.45;;;8.00;90.50;;;;;;6278248;22;20215;-91
2023/12/14 09:40:22;;;;;;;2.30;1.23;;;8.00;90.70;;;;;;6277781;22;20169;-91
2023/12/14 09:42:48;;;;;;;2.65;1.35;;;8.10;90.80;;;;;;6278102;22;20260;-91
2023/12/14 09:45:18;;;;;;;2.00;0.95;;;8.10;91.10;;;;;;6278132;22;20446;-91
2023/12/14 09:48:03;;;;;;;2.25;1.23;;;8.10;90.60;;;;;;5111143;27;20552;-92
2023/12/14 09:50:31;;;;;;;1.90;1.00;;;8.20;90.70;;;;;;5111394;28;20192;-92
2023/12/14 09:52:58;;;;;;;2.95;1.30;;;8.20;90.60;;;;;;5111080;28;20221;-92
2023/12/14 09:55:25;;;;;;;3.00;1.48;;;8.20;90.40;;;;;;5111028;28;20714;-92
2023/12/14 09:57:52;;;;;;;2.65;1.13;;;8.20;90.30;;;;;;5111277;28;20276;-92
2023/12/14 10:00:34;;;;;;;2.25;1.30;;;8.30;90.10;;;;;;5111193;28;20271;-92
2023/12/14 10:03:19;;;;;;;1.90;0.90;;;8.30;90.20;;;;;;5111104;28;20547;-92
2023/12/14 10:05:46;;;;;;;2.00;1.00;;;8.30;90.30;;;;;;5111301;28;20606;-92
2023/12/14 10:08:13;;;;;;;3.15;1.15;;;8.30;90.60;;;;;;5110805;28;20646;-91
2023/12/14 10:10:40;;;;;;;1.88;0.82;;;8.30;90.70;;;;;;5110709;28;20284;-93
2023/12/14 10:13:07;;;;;;;2.05;0.95;;;8.40;90.60;;;;;;5110698;28;20276;-92
2023/12/14 10:15:42;;;;;;;2.53;1.00;;;8.40;90.30;;;;;;5110910;28;20243;-89
2023/12/14 10:18:09;;;;;;;2.10;1.00;;;8.40;90.00;;;;;;5110796;28;20748;-90
2023/12/14 10:20:38;;;;;;;2.30;1.10;;;8.50;89.60;;;;;;5110660;28;20205;-90
2023/12/14 10:23:06;;;;;;;2.58;1.48;;;8.50;89.10;;;;;;5110747;28;20197;-92
2023/12/14 10:25:33;;;;;;;2.25;1.20;;;8.60;89.40;;;;;;5110477;28;20619;-92
2023/12/14 10:28:02;;;;;;;2.40;1.30;;;8.70;89.50;;;;;;5110351;28;20678;-92
2023/12/14 10:30:30;;;;;;;2.75;1.30;;;8.70;88.70;;;;;;5110348;28;20662;-93
2023/12/14 10:32:57;;;;;;;2.10;1.10;;;8.80;88.40;;;;;;5110522;28;20192;-93
2023/12/14 10:35:24;;;;;;;2.95;1.20;;;8.80;88.40;;;;;;5110309;28;20220;-93
2023/12/14 10:37:53;;;;;;;2.38;1.38;;;8.80;88.10;;;;;;5110190;28;20189;-93
2023/12/14 10:40:21;;;;;;;1.95;0.80;;;8.90;88.00;;;;;;5110165;28;20246;-92
2023/12/14 10:42:49;;;;;;;2.42;1.05;;;8.90;87.50;;;;;;5110455;28;20200;-94
2023/12/14 10:45:18;;;;;;;2.30;0.95;;;8.90;87.00;;;;;;5110050;28;20280;-93
2023/12/14 10:47:45;;;;;;;1.80;0.82;;;8.90;87.50;;;;;;5109895;28;20225;-94
2023/12/14 10:50:13;;;;;;;2.00;0.90;;;8.90;87.40;;;;;;5109953;28;20280;-92
2023/12/14 10:52:41;;;;;;;4.20;1.40;;;9.00;87.30;;;;;;5110151;28;20192;-93
2023/12/14 10:55:16;;;;;;;2.42;1.00;;;9.00;86.70;;;;;;5110150;28;20220;-93
2023/12/14 10:57:43;;;;;;;2.00;0.90;;;9.00;86.70;;;;;;5105323;28;20645;-90
2023/12/14 11:00:11;;;;;;;2.40;1.00;;;9.00;86.40;;;;;;5096596;28;20232;-91
2023/12/14 11:02:45;;;;;;;3.00;1.20;;;9.00;86.00;;;;;;5096547;28;20194;-94
2023/12/14 11:05:19;;;;;;;1.90;1.00;;;8.90;86.40;;;;;;5096177;28;20268;-91
2023/12/14 11:07:47;;;;;;;2.53;0.90;;;8.90;86.70;;;;;;5096526;28;20232;-92
2023/12/14 11:10:22;;;;;;;3.10;1.00;;;8.80;87.50;;;;;;5096325;28;20276;-92
2023/12/14 11:12:57;;;;;;;2.00;1.00;;;8.80;88.20;;;;;;5096576;28;20218;-90
2023/12/14 11:15:25;;;;;;;2.17;0.82;;;8.60;87.80;;;;;;5096368;28;20266;-90
2023/12/14 11:18:24;;;;;;;3.70;1.30;;;8.50;87.30;;;;;;5095943;28;20193;-90
2023/12/14 11:20:56;;;;;;;2.97;1.13;;;8.50;86.70;;;;;;5096190;28;20189;-90
2023/12/14 11:23:34;;;;;;;2.10;0.90;;;8.30;86.00;;;;;;5096254;28;20178;-90
2023/12/14 11:26:05;;;;;;;1.70;0.70;;;8.20;85.70;;;;;;5095988;28;20200;-90
2023/12/14 11:28:34;;;;;;;2.10;0.80;;;8.10;85.80;;;;;;5096077;28;20284;-91
2023/12/14 11:31:02;;;;;;;3.33;1.60;;;8.10;85.80;;;;;;5095931;28;20274;-91
2023/12/14 11:33:29;;;;;;;3.03;1.17;;;8.10;85.90;;;;;;5095880;28;20194;-91
2023/12/14 11:35:57;;;;;;;2.70;1.10;;;8.10;86.30;;;;;;5095625;28;20639;-90
2023/12/14 11:38:25;;;;;;;4.65;1.25;;;8.20;86.50;;;;;;5095697;28;20284;-89
2023/12/14 11:40:52;;;;;;;1.80;0.70;;;8.20;86.90;;;;;;5095419;28;20678;-91
2023/12/14 11:43:21;;;;;;;1.80;0.70;;;8.40;87.60;;;;;;5095730;28;20193;-90
2023/12/14 11:45:48;;;;;;;2.05;1.05;;;8.80;88.60;;;;;;5095420;28;20282;-90
2023/12/14 11:48:16;;;;;;;1.80;0.90;;;9.60;86.70;;;;;;5095273;28;20763;-89
2023/12/14 11:50:44;;;;;;;3.10;1.35;;;9.90;84.50;;;;;;5095495;28;20200;-90
2023/12/14 11:53:12;;;;;;;2.20;0.80;;;10.00;82.70;;;;;;5095033;28;20189;-89
2023/12/14 11:55:40;;;;;;;2.08;0.90;;;10.00;81.20;;;;;;5095446;28;20194;-89
2023/12/14 11:58:08;;;;;;;1.90;0.80;;;9.90;82.40;;;;;;5095448;28;20190;-90
2023/12/14 12:00:39;;;;;;;2.00;1.05;;;9.70;81.80;;;;;;5095110;28;20715;-91
2023/12/14 12:03:11;;;;;;;2.72;1.02;;;9.60;82.00;;;;;;5095525;28;20174;-91
2023/12/14 12:05:41;;;;;;;2.47;1.40;;;9.50;81.60;;;;;;5094928;28;20250;-91
2023/12/14 12:08:09;;;;;;;2.10;1.23;;;9.50;81.90;;;;;;5095107;28;20202;-90
2023/12/14 12:10:36;;;;;;;6.10;1.98;;;9.40;82.70;;;;;;5093899;28;20194;-89
2023/12/14 12:13:04;;;;;;;3.35;1.75;;;9.30;81.30;;;;;;5094502;28;20193;-88
2023/12/14 12:15:32;;;;;;;3.90;2.05;;;9.10;81.80;;;;;;5094382;28;20715;-91
2023/12/14 12:18:01;;;;;;;3.60;1.48;;;9.10;83.30;;;;;;5094848;28;20198;-89
2023/12/14 12:20:28;;;;;;;3.10;1.70;;;9.10;84.30;;;;;;5094749;28;20268;-91
2023/12/14 12:22:55;;;;;;;3.00;1.60;;;9.10;84.00;;;;;;5094905;28;20280;-91
2023/12/14 12:25:25;;;;;;;6.45;1.55;;;9.10;84.50;;;;;;5095003;28;20210;-91
2023/12/14 12:27:52;;;;;;;2.42;1.50;;;9.10;83.70;;;;;;5094756;28;20208;-90
2023/12/14 12:30:19;;;;;;;2.90;1.58;;;9.10;83.50;;;;;;5094702;28;20229;-89
2023/12/14 12:32:45;;;;;;;2.58;1.55;;;9.00;84.10;;;;;;5094621;28;20196;-91
2023/12/14 12:35:14;;;;;;;3.95;1.95;;;8.90;84.40;;;;;;5094300;28;20235;-91
2023/12/14 12:37:42;;;;;;;5.78;2.03;;;8.90;85.10;;;;;;5094603;28;20239;-91
2023/12/14 12:40:10;;;;;;;3.65;2.88;;;8.80;85.20;;;;;;5094264;28;20651;-91
2023/12/14 12:42:37;;;;;;;3.70;2.50;;;8.80;86.00;;;;;;5094323;28;20591;-91
2023/12/14 12:45:05;;;;;;;2.97;1.60;;;8.80;86.50;;;;;;5094416;28;20233;-92
2023/12/14 12:47:32;;;;;;;2.75;1.50;;;8.70;86.70;;;;;;5091335;28;20226;-91
2023/12/14 12:49:59;;;;;;;2.90;1.75;;;8.70;87.40;;;;;;5093948;28;20189;-92
2023/12/14 12:52:27;;;;;;;3.67;2.15;;;8.70;86.50;;;;;;5094183;28;20224;-91
2023/12/14 12:54:54;;;;;;;3.47;1.73;;;8.60;86.80;;;;;;5094085;28;20559;-93
2023/12/14 12:57:21;;;;;;;3.00;1.70;;;8.60;87.70;;;;;;5093753;28;20224;-93
2023/12/14 12:59:48;;;;;;;2.42;1.15;;;8.50;88.30;;;;;;5093932;28;20247;-91
2023/12/14 13:02:15;;;;;;;2.35;1.00;;;8.60;88.50;;;;;;5094156;28;20189;-91
2023/12/14 13:04:43;;;;;;;2.20;1.20;;;8.60;89.00;;;;;;5094212;28;20201;-92
2023/12/14 13:07:11;;;;;;;2.30;1.23;;;8.70;89.10;;;;;;5093974;28;20248;-92